createdAt,value
2022-10-25T00:02:21.525Z,100303.19
2022-10-25T00:04:49.732Z,100297.78
2022-10-25T00:07:17.281Z,100290.81
2022-10-25T00:09:45.128Z,100286.13
2022-10-25T00:12:12.610Z,100286.88
2022-10-25T00:14:40.558Z,100296.94
2022-10-25T00:17:08.109Z,100306.97
2022-10-25T00:19:35.815Z,100302.69
2022-10-25T00:22:03.346Z,100293.75
2022-10-25T00:24:31.261Z,100295.31
2022-10-25T00:26:58.994Z,100282.91
2022-10-25T00:29:26.874Z,100286.41
2022-10-25T00:31:54.382Z,100290.25
2022-10-25T00:34:22.097Z,100282.47
2022-10-25T00:36:49.634Z,100277.78
2022-10-25T00:39:17.474Z,100285.88
2022-10-25T00:41:44.950Z,100288.19
2022-10-25T00:44:40.057Z,100293.19
2022-10-25T00:47:19.573Z,100305.19
2022-10-25T00:49:58.906Z,100309.78
2022-10-25T00:52:29.904Z,100306.69
2022-10-25T00:54:58.610Z,100311.34
2022-10-25T00:57:34.701Z,100314.44
2022-10-25T01:00:04.463Z,100314.44
2022-10-25T01:02:32.205Z,100316.00
2022-10-25T01:05:00.362Z,100312.47
2022-10-25T01:07:27.870Z,100311.34
2022-10-25T01:09:55.916Z,100309.78
2022-10-25T01:12:23.369Z,100301.66
2022-10-25T01:14:52.920Z,100304.38
2022-10-25T01:17:44.782Z,100300.53
2022-10-25T01:20:27.138Z,100293.53
2022-10-25T01:23:19.370Z,100296.66
2022-10-25T01:26:08.487Z,100301.28
2022-10-25T01:29:18.270Z,100297.41
2022-10-25T01:32:01.128Z,100296.59
2022-10-25T01:34:41.331Z,100307.03
2022-10-25T01:37:24.602Z,100305.50
2022-10-25T01:40:39.169Z,100302.88
2022-10-25T01:43:39.014Z,100311.50
2022-10-25T01:46:50.504Z,100307.03
2022-10-25T01:50:08.817Z,100301.63
2022-10-25T01:52:36.343Z,100297.81
2022-10-25T01:55:08.995Z,100302.09
2022-10-25T01:58:12.217Z,100299.44
2022-10-25T02:01:46.449Z,100298.66
2022-10-25T02:04:25.930Z,100293.19
2022-10-25T02:07:20.963Z,100294.38
2022-10-25T02:10:29.511Z,100293.97
2022-10-25T02:13:08.057Z,100283.94
2022-10-25T02:15:40.717Z,100292.47
2022-10-25T02:18:16.102Z,100285.91
2022-10-25T02:20:46.820Z,100298.72
2022-10-25T02:23:17.825Z,100302.56
2022-10-25T02:25:47.793Z,100297.59
2022-10-25T02:28:19.304Z,100301.44
2022-10-25T02:30:48.002Z,100307.66
2022-10-25T02:33:15.942Z,100314.63
2022-10-25T02:35:43.611Z,100329.69
2022-10-25T02:38:11.577Z,100314.97
2022-10-25T02:40:39.180Z,100320.75
2022-10-25T02:43:06.967Z,100305.25
2022-10-25T02:45:34.446Z,100320.31
2022-10-25T02:48:02.288Z,100321.88
2022-10-25T02:50:29.754Z,100317.22
2022-10-25T02:52:57.533Z,100335.03
2022-10-25T02:55:24.992Z,100334.97
2022-10-25T02:57:52.763Z,100338.00
2022-10-25T03:00:20.336Z,100332.94
2022-10-25T03:02:48.301Z,100349.59
2022-10-25T03:05:16.109Z,100331.03
2022-10-25T03:07:43.853Z,100342.66
2022-10-25T03:10:11.543Z,100341.50
2022-10-25T03:12:39.333Z,100352.78
2022-10-25T03:15:07.885Z,100357.44
2022-10-25T03:17:35.914Z,100352.41
2022-10-25T03:20:03.826Z,100350.47
2022-10-25T03:22:32.085Z,100350.47
2022-10-25T03:24:59.583Z,100354.78
2022-10-25T03:27:27.544Z,100350.91
2022-10-25T03:29:55.097Z,100355.16
2022-10-25T03:32:22.876Z,100360.59
2022-10-25T03:34:50.366Z,100352.03
2022-10-25T03:37:18.084Z,100351.22
2022-10-25T03:39:45.684Z,100358.19
2022-10-25T03:42:13.557Z,100361.97
2022-10-25T03:44:41.175Z,100363.16
2022-10-25T03:47:08.907Z,100361.19
2022-10-25T03:49:36.645Z,100366.16
2022-10-25T03:52:07.321Z,100371.16
2022-10-25T03:54:35.442Z,100371.56
2022-10-25T03:57:04.144Z,100370.81
2022-10-25T03:59:31.666Z,100384.72
2022-10-25T04:02:00.437Z,100377.25
2022-10-25T04:04:28.174Z,100380.31
2022-10-25T04:06:55.975Z,100383.34
2022-10-25T04:09:23.485Z,100384.81
2022-10-25T04:11:51.258Z,100378.66
2022-10-25T04:14:18.724Z,100373.28
2022-10-25T04:16:46.558Z,100386.44
2022-10-25T04:19:14.117Z,100389.50
2022-10-25T04:21:42.463Z,100387.66
2022-10-25T04:24:10.281Z,100395.78
2022-10-25T04:26:38.858Z,100398.13
2022-10-25T04:29:06.828Z,100398.94
2022-10-25T04:31:34.704Z,100398.22
2022-10-25T04:34:02.174Z,100399.75
2022-10-25T04:36:31.238Z,100410.56
2022-10-25T04:38:58.849Z,100405.91
2022-10-25T04:41:26.910Z,100405.09
2022-10-25T04:43:54.333Z,100405.47
2022-10-25T04:46:22.223Z,100413.56
2022-10-25T04:48:49.919Z,100411.22
2022-10-25T04:51:18.025Z,100411.94
2022-10-25T04:53:45.628Z,100413.09
2022-10-25T04:56:14.528Z,100404.13
2022-10-25T04:58:42.331Z,100411.44
2022-10-25T05:01:14.761Z,100415.69
2022-10-25T05:03:42.901Z,100415.28
2022-10-25T05:06:18.118Z,100418.00
2022-10-25T05:08:51.065Z,100418.69
2022-10-25T05:11:22.029Z,100414.78
2022-10-25T05:13:49.852Z,100420.56
2022-10-25T05:16:23.504Z,100421.69
2022-10-25T05:18:55.107Z,100429.44
2022-10-25T05:21:31.503Z,100436.41
2022-10-25T05:24:02.032Z,100443.03
2022-10-25T05:26:31.406Z,100435.72
2022-10-25T05:28:59.174Z,100444.22
2022-10-25T05:31:30.264Z,100458.25
2022-10-25T05:34:01.179Z,100463.63
2022-10-25T05:36:29.587Z,100477.91
2022-10-25T05:38:58.336Z,100482.97
2022-10-25T05:41:26.052Z,100488.84
2022-10-25T05:43:53.637Z,100497.03
2022-10-25T05:46:23.590Z,100486.19
2022-10-25T05:48:53.710Z,100507.44
2022-10-25T05:51:35.193Z,100510.59
2022-10-25T05:54:12.588Z,100515.63
2022-10-25T05:56:42.498Z,100516.44
2022-10-25T05:59:14.373Z,100530.34
2022-10-25T06:01:46.085Z,100525.31
2022-10-25T06:04:15.483Z,100538.81
2022-10-25T06:06:45.806Z,100530.66
2022-10-25T06:09:14.310Z,100540.75
2022-10-25T06:11:42.253Z,100549.69
2022-10-25T06:14:11.211Z,100548.09
2022-10-25T06:16:39.186Z,100551.16
2022-10-25T06:19:08.106Z,100562.75
2022-10-25T06:21:36.891Z,100559.97
2022-10-25T06:24:04.915Z,100557.31
2022-10-25T06:26:33.104Z,100565.88
2022-10-25T06:29:04.125Z,100570.50
2022-10-25T06:31:33.186Z,100565.53
2022-10-25T06:34:02.302Z,100569.78
2022-10-25T06:36:31.405Z,100566.66
2022-10-25T06:39:05.862Z,100563.19
2022-10-25T06:41:38.650Z,100573.28
2022-10-25T06:44:07.960Z,100564.06
2022-10-25T06:49:27.055Z,100573.97
2022-10-25T06:51:55.100Z,100580.97
2022-10-25T06:54:22.730Z,100578.69
2022-10-25T06:56:50.548Z,100575.63
2022-10-25T06:59:19.475Z,100570.25
2022-10-25T07:01:47.835Z,100573.84
2022-10-25T07:04:16.044Z,100581.25
2022-10-25T07:06:44.078Z,100567.75
2022-10-25T07:09:13.250Z,100571.25
2022-10-25T07:11:41.131Z,100579.00
2022-10-25T07:14:09.535Z,100573.53
2022-10-25T07:16:37.606Z,100568.50
2022-10-25T07:19:05.363Z,100568.19
2022-10-25T07:21:33.825Z,100565.56
2022-10-25T07:24:01.837Z,100563.75
2022-10-25T07:26:33.849Z,100569.19
2022-10-25T07:29:04.306Z,100550.56
2022-10-25T07:31:38.714Z,100560.25
2022-10-25T07:34:06.914Z,100566.09
2022-10-25T07:36:34.899Z,100571.19
2022-10-25T07:39:02.394Z,100576.31
2022-10-25T07:41:30.109Z,100563.16
2022-10-25T07:43:57.785Z,100571.69
2022-10-25T07:46:25.825Z,100572.09
2022-10-25T07:48:53.453Z,100572.47
2022-10-25T07:51:21.451Z,100576.38
2022-10-25T07:53:50.059Z,100567.88
2022-10-25T07:56:23.172Z,100574.03
2022-10-25T07:58:54.497Z,100569.81
2022-10-25T08:01:26.428Z,100568.34
2022-10-25T08:03:55.506Z,100576.50
2022-10-25T08:06:25.525Z,100577.66
2022-10-25T08:08:53.347Z,100564.09
2022-10-25T08:11:21.438Z,100564.09
2022-10-25T08:13:50.744Z,100569.19
2022-10-25T08:16:19.069Z,100566.50
2022-10-25T08:18:46.830Z,100573.13
2022-10-25T08:21:15.071Z,100575.88
2022-10-25T08:23:42.826Z,100566.53
2022-10-25T08:26:10.845Z,100570.44
2022-10-25T08:28:38.407Z,100578.22
2022-10-25T08:31:06.466Z,100583.66
2022-10-25T08:33:34.388Z,100586.00
2022-10-25T08:36:03.023Z,100578.63
2022-10-25T08:38:30.828Z,100572.78
2022-10-25T08:41:17.485Z,100562.75
2022-10-25T08:44:31.545Z,100572.06
2022-10-25T08:47:20.105Z,100562.00
2022-10-25T08:50:05.955Z,100563.56
2022-10-25T08:52:48.367Z,100563.56
2022-10-25T08:55:34.690Z,100560.50
2022-10-25T08:58:15.517Z,100561.28
2022-10-25T09:00:47.268Z,100562.47
2022-10-25T09:03:26.454Z,100564.38
2022-10-25T09:05:56.592Z,100579.16
2022-10-25T09:08:59.713Z,100582.25
2022-10-25T09:12:10.849Z,100583.81
2022-10-25T09:15:32.762Z,100585.78
2022-10-25T09:18:09.170Z,100586.16
2022-10-25T09:20:52.237Z,100583.81
2022-10-25T09:23:31.285Z,100570.63
2022-10-25T09:26:23.071Z,100571.38
2022-10-25T09:29:42.101Z,100558.19
2022-10-25T09:32:39.706Z,100554.69
2022-10-25T09:35:33.159Z,100541.88
2022-10-25T09:38:11.738Z,100532.16
2022-10-25T09:40:56.836Z,100534.50
2022-10-25T09:43:39.603Z,100554.28
2022-10-25T09:46:23.445Z,100573.75
2022-10-25T09:49:02.956Z,100593.16
2022-10-25T09:51:44.650Z,100583.03
2022-10-25T09:55:06.781Z,100607.91
2022-10-25T09:57:34.283Z,100606.72
2022-10-25T10:00:02.049Z,100602.03
2022-10-25T10:02:41.243Z,100596.63
2022-10-25T10:05:18.227Z,100591.59
2022-10-25T10:07:47.821Z,100578.38
2022-10-25T10:10:32.364Z,100578.38
2022-10-25T10:13:24.948Z,100592.75
2022-10-25T10:16:04.813Z,100580.69
2022-10-25T10:18:34.287Z,100591.59
2022-10-25T10:21:14.398Z,100600.13
2022-10-25T10:23:47.614Z,100578.34
2022-10-25T10:26:35.305Z,100579.91
2022-10-25T10:29:22.257Z,100585.34
2022-10-25T10:32:00.859Z,100583.00
2022-10-25T10:34:43.998Z,100586.16
2022-10-25T10:37:22.063Z,100585.34
2022-10-25T10:40:24.348Z,100582.25
2022-10-25T10:42:54.680Z,100582.25
2022-10-25T10:45:24.614Z,100579.13
2022-10-25T10:47:52.189Z,100579.09
2022-10-25T10:50:28.848Z,100577.94
2022-10-25T10:53:02.922Z,100593.88
2022-10-25T10:55:46.451Z,100586.84
2022-10-25T10:58:25.291Z,100581.75
2022-10-25T11:01:04.825Z,100582.13
2022-10-25T11:03:37.393Z,100571.56
2022-10-25T11:06:28.017Z,100576.56
2022-10-25T11:09:15.720Z,100571.47
2022-10-25T11:11:44.465Z,100573.03
2022-10-25T11:14:16.828Z,100580.41
2022-10-25T11:17:14.619Z,100577.34
2022-10-25T11:20:18.683Z,100569.59
2022-10-25T11:23:36.607Z,100568.81
2022-10-25T11:26:15.988Z,100582.81
2022-10-25T11:29:01.228Z,100583.56
2022-10-25T11:32:18.508Z,100586.63
2022-10-25T11:35:11.115Z,100587.41
2022-10-25T11:37:53.707Z,100585.47
2022-10-25T11:40:35.079Z,100583.91
2022-10-25T11:43:49.561Z,100582.69
2022-10-25T11:46:42.148Z,100578.78
2022-10-25T11:49:47.990Z,100577.53
2022-10-25T11:52:33.393Z,100562.31
2022-10-25T11:55:50.285Z,100573.91
2022-10-25T11:58:54.677Z,100573.88
2022-10-25T12:01:41.627Z,100570.66
2022-10-25T12:04:40.872Z,100563.53
2022-10-25T12:08:02.169Z,100556.84
2022-10-25T12:10:48.084Z,100562.53
2022-10-25T12:13:28.885Z,100561.50
2022-10-25T12:15:58.791Z,100555.03
2022-10-25T12:18:53.510Z,100561.47
2022-10-25T12:21:27.956Z,100553.84
2022-10-25T12:23:56.040Z,100555.06
2022-10-25T12:26:30.206Z,100558.06
2022-10-25T12:29:03.330Z,100553.75
2022-10-25T12:31:46.344Z,100557.13
2022-10-25T12:34:44.839Z,100566.19
2022-10-25T12:37:57.862Z,100558.84
2022-10-25T12:40:29.552Z,100564.84
2022-10-25T12:43:21.616Z,100569.16
2022-10-25T12:46:32.700Z,100561.97
2022-10-25T12:49:46.690Z,100572.94
2022-10-25T12:52:38.546Z,100569.75
2022-10-25T12:55:42.805Z,100561.03
2022-10-25T12:58:40.649Z,100573.69
2022-10-25T13:01:15.107Z,100566.34
2022-10-25T13:04:00.858Z,100571.75
2022-10-25T13:06:37.734Z,100569.16
2022-10-25T13:09:13.540Z,100570.06
2022-10-25T13:11:48.007Z,100570.69
2022-10-25T13:14:34.040Z,100575.69
2022-10-25T13:17:16.910Z,100575.25
2022-10-25T13:19:54.952Z,100578.72
2022-10-25T13:22:35.626Z,100585.31
2022-10-25T13:25:18.420Z,100574.75
2022-10-25T13:28:11.765Z,100572.00
2022-10-25T13:30:39.691Z,100573.41
2022-10-25T13:33:21.506Z,100571.56
2022-10-25T13:35:49.139Z,100577.69
2022-10-25T13:38:25.004Z,100568.22
2022-10-25T13:41:12.702Z,100575.81
2022-10-25T13:44:06.745Z,100583.09
2022-10-25T13:46:39.581Z,100589.28
2022-10-25T13:49:41.039Z,100589.28
2022-10-25T13:52:32.307Z,100591.91
2022-10-25T13:55:02.915Z,100583.72
2022-10-25T13:57:58.512Z,100593.81
2022-10-25T14:00:38.351Z,100585.06
2022-10-25T14:03:08.902Z,100591.47
2022-10-25T14:05:55.273Z,100586.88
2022-10-25T14:08:44.022Z,100587.97
2022-10-25T14:11:42.386Z,100593.69
2022-10-25T14:14:22.364Z,100593.91
2022-10-25T14:17:27.998Z,100587.44
2022-10-25T14:20:02.668Z,100593.50
2022-10-25T14:22:44.100Z,100597.13
2022-10-25T14:25:17.730Z,100595.22
2022-10-25T14:27:45.471Z,100594.53
2022-10-25T14:30:34.714Z,100600.00
2022-10-25T14:33:06.289Z,100596.97
2022-10-25T14:35:45.391Z,100598.94
2022-10-25T14:38:28.773Z,100594.66
2022-10-25T14:41:02.660Z,100600.50
2022-10-25T14:43:36.951Z,100598.56
2022-10-25T14:46:15.901Z,100610.22
2022-10-25T14:48:46.993Z,100606.34
2022-10-25T14:51:27.956Z,100599.72
2022-10-25T14:54:04.283Z,100601.69
2022-10-25T14:56:40.920Z,100600.16
2022-10-25T14:59:50.165Z,100603.63
2022-10-25T15:02:32.675Z,100604.03
2022-10-25T15:05:02.433Z,100604.78
2022-10-25T15:07:44.685Z,100604.78
2022-10-25T15:10:30.743Z,100611.81
2022-10-25T15:13:21.107Z,100621.88
2022-10-25T15:15:51.415Z,100614.50
2022-10-25T15:18:37.617Z,100621.88
2022-10-25T15:21:17.613Z,100616.44
2022-10-25T15:24:16.526Z,100620.31
2022-10-25T15:27:02.652Z,100616.81
2022-10-25T15:29:42.369Z,100608.28
2022-10-25T15:32:19.762Z,100611.78
2022-10-25T15:34:51.449Z,100616.44
2022-10-25T15:37:22.232Z,100614.88
2022-10-25T15:39:53.140Z,100615.63
2022-10-25T15:42:23.968Z,100618.75
2022-10-25T15:44:51.721Z,100623.41
2022-10-25T15:47:34.644Z,100614.09
2022-10-25T15:50:10.857Z,100621.06
2022-10-25T15:52:38.373Z,100625.28
2022-10-25T15:55:27.940Z,100626.44
2022-10-25T15:57:55.550Z,100622.16
2022-10-25T16:00:28.023Z,100624.84
2022-10-25T16:02:57.151Z,100627.13
2022-10-25T16:05:33.489Z,100618.94
2022-10-25T16:08:01.618Z,100624.00
2022-10-25T16:10:30.825Z,100626.69
2022-10-25T16:13:04.525Z,100630.94
2022-10-25T16:15:32.794Z,100618.13
2022-10-25T16:18:00.637Z,100619.66
2022-10-25T16:20:30.924Z,100627.78
2022-10-25T16:22:58.589Z,100623.09
2022-10-25T16:25:30.485Z,100626.94
2022-10-25T16:28:00.924Z,100633.13
2022-10-25T16:30:35.359Z,100635.44
2022-10-25T16:33:04.126Z,100636.19
2022-10-25T16:35:31.862Z,100632.69
2022-10-25T16:37:59.672Z,100638.47
2022-10-25T16:40:28.359Z,100641.53
2022-10-25T16:42:58.352Z,100642.66
2022-10-25T16:45:31.706Z,100636.47
2022-10-25T16:47:59.782Z,100650.78
2022-10-25T16:50:30.697Z,100651.56
2022-10-25T16:53:01.350Z,100652.34
2022-10-25T16:55:30.603Z,100655.03
2022-10-25T16:57:59.868Z,100662.00
2022-10-25T17:00:32.441Z,100660.88
2022-10-25T17:03:00.082Z,100672.88
2022-10-25T17:05:30.392Z,100676.31
2022-10-25T17:07:58.073Z,100673.59
2022-10-25T17:10:26.261Z,100677.84
2022-10-25T17:13:03.996Z,100675.13
2022-10-25T17:15:33.193Z,100681.69
2022-10-25T17:18:00.719Z,100673.16
2022-10-25T17:20:29.062Z,100682.44
2022-10-25T17:22:57.337Z,100678.53
2022-10-25T17:25:25.157Z,100682.41
2022-10-25T17:27:54.066Z,100678.88
2022-10-25T17:30:22.042Z,100677.31
2022-10-25T17:32:50.164Z,100674.19
2022-10-25T17:35:19.719Z,100675.34
2022-10-25T17:37:48.111Z,100675.34
2022-10-25T17:40:16.096Z,100675.34
2022-10-25T17:42:43.601Z,100670.31
2022-10-25T17:45:11.588Z,100671.09
2022-10-25T17:47:42.601Z,100668.34
2022-10-25T17:50:12.871Z,100679.94
2022-10-25T17:52:42.275Z,100674.50
2022-10-25T17:55:13.802Z,100669.81
2022-10-25T17:57:41.336Z,100670.16
2022-10-25T18:00:10.401Z,100665.47
2022-10-25T18:02:44.026Z,100670.09
2022-10-25T18:05:20.609Z,100666.97
2022-10-25T18:07:49.535Z,100663.50
2022-10-25T18:10:17.591Z,100670.50
2022-10-25T18:12:46.280Z,100675.91
2022-10-25T18:15:14.448Z,100678.25
2022-10-25T18:17:43.166Z,100672.81
2022-10-25T18:20:11.401Z,100672.47
2022-10-25T18:22:38.947Z,100669.75
2022-10-25T18:25:07.865Z,100672.47
2022-10-25T18:27:35.748Z,100667.44
2022-10-25T18:30:04.844Z,100677.53
2022-10-25T18:32:36.161Z,100677.53
2022-10-25T18:35:04.500Z,100683.38
2022-10-25T18:37:33.020Z,100683.75
2022-10-25T18:40:00.754Z,100685.34
2022-10-25T18:42:28.278Z,100690.75
2022-10-25T18:44:56.078Z,100686.88
2022-10-25T18:47:23.752Z,100689.53
2022-10-25T18:49:51.569Z,100678.66
2022-10-25T18:52:19.090Z,100680.19
2022-10-25T18:54:46.970Z,100681.34
2022-10-25T18:57:15.636Z,100686.75
2022-10-25T18:59:43.483Z,100689.88
2022-10-25T19:02:11.884Z,100685.22
2022-10-25T19:04:40.437Z,100687.56
2022-10-25T19:07:07.894Z,100694.56
2022-10-25T19:09:35.654Z,100691.84
2022-10-25T19:12:03.198Z,100693.34
2022-10-25T19:14:30.959Z,100688.31
2022-10-25T19:16:58.481Z,100689.88
2022-10-25T19:19:26.801Z,100692.94
2022-10-25T19:21:55.050Z,100701.88
2022-10-25T19:24:23.110Z,100695.28
2022-10-25T19:26:51.029Z,100700.72
2022-10-25T19:29:19.110Z,100696.81
2022-10-25T19:31:46.674Z,100705.31
2022-10-25T19:34:14.423Z,100695.63
2022-10-25T19:36:41.945Z,100710.75
2022-10-25T19:39:10.527Z,100706.81
2022-10-25T19:41:38.154Z,100699.41
2022-10-25T19:44:05.980Z,100709.84
2022-10-25T19:46:33.638Z,100712.16
2022-10-25T19:49:01.896Z,100711.38
2022-10-25T19:51:44.227Z,100719.47
2022-10-25T19:54:21.202Z,100710.88
2022-10-25T19:57:14.273Z,100716.66
2022-10-25T19:59:46.625Z,100709.69
2022-10-25T20:02:14.843Z,100704.19
2022-10-25T20:04:47.727Z,100717.28
2022-10-25T20:07:16.755Z,100712.63
2022-10-25T20:09:44.703Z,100718.06
2022-10-25T20:12:12.822Z,100727.31
2022-10-25T20:14:40.652Z,100712.56
2022-10-25T20:17:09.054Z,100714.91
2022-10-25T20:19:36.791Z,100722.94
2022-10-25T20:22:05.608Z,100722.47
2022-10-25T20:24:33.560Z,100728.97
2022-10-25T20:27:02.708Z,100725.50
2022-10-25T20:29:30.431Z,100729.75
2022-10-25T20:31:57.928Z,100732.78
2022-10-25T20:34:25.809Z,100742.06
2022-10-25T20:36:53.749Z,100737.06
2022-10-25T20:39:21.543Z,100737.81
2022-10-25T20:41:49.029Z,100739.41
2022-10-25T20:44:57.960Z,100738.59
2022-10-25T20:47:39.861Z,100744.41
2022-10-25T20:50:26.363Z,100740.13
2022-10-25T20:53:12.102Z,100752.44
2022-10-25T20:55:45.350Z,100750.91
2022-10-25T20:58:18.637Z,100757.88
2022-10-25T21:01:14.841Z,100752.44
2022-10-25T21:04:25.889Z,100744.72
2022-10-25T21:07:51.644Z,100742.38
2022-10-25T21:10:36.914Z,100743.91
2022-10-25T21:14:20.785Z,100744.72
2022-10-25T21:16:55.070Z,100746.63
2022-10-25T21:19:29.839Z,100742.38
2022-10-25T21:22:10.375Z,100737.31
2022-10-25T21:24:41.939Z,100736.09
2022-10-25T21:27:10.503Z,100730.66
2022-10-25T21:29:38.397Z,100736.44
2022-10-25T21:32:05.987Z,100731.75
2022-10-25T21:34:33.759Z,100725.19
2022-10-25T21:37:23.078Z,100728.63
2022-10-25T21:40:01.767Z,100718.97
2022-10-25T21:42:40.533Z,100719.69
2022-10-25T21:45:15.214Z,100729.66
2022-10-25T21:47:46.199Z,100721.84
2022-10-25T21:50:23.837Z,100731.44
2022-10-25T21:52:58.525Z,100720.53
2022-10-25T21:55:34.077Z,100728.50
2022-10-25T21:58:05.165Z,100720.69
2022-10-25T22:00:36.485Z,100719.16
2022-10-25T22:03:04.223Z,100717.53
2022-10-25T22:05:33.329Z,100711.34
2022-10-25T22:08:00.907Z,100708.19
2022-10-25T22:10:29.739Z,100720.50
2022-10-25T22:12:58.961Z,100720.03
2022-10-25T22:15:44.570Z,100728.88
2022-10-25T22:18:12.605Z,100723.34
2022-10-25T22:20:42.883Z,100722.47
2022-10-25T22:23:21.697Z,100725.50
2022-10-25T22:25:56.494Z,100716.13
2022-10-25T22:28:27.440Z,100729.22
2022-10-25T22:31:07.220Z,100718.34
2022-10-25T22:33:35.471Z,100721.38
2022-10-25T22:36:17.940Z,100728.25
2022-10-25T22:38:48.246Z,100728.97
2022-10-25T22:41:24.380Z,100718.81
2022-10-25T22:43:52.693Z,100718.38
2022-10-25T22:46:26.443Z,100724.50
2022-10-25T22:48:57.282Z,100727.91
2022-10-25T22:51:27.916Z,100732.13
2022-10-25T22:53:55.976Z,100737.09
2022-10-25T22:56:26.554Z,100732.41
2022-10-25T22:58:57.536Z,100732.00
2022-10-25T23:01:35.079Z,100734.63
2022-10-25T23:04:06.815Z,100745.34
2022-10-25T23:06:39.052Z,100744.16
2022-10-25T23:09:10.677Z,100739.88
2022-10-25T23:11:41.419Z,100744.44
2022-10-25T23:14:14.822Z,100743.22
2022-10-25T23:16:46.368Z,100747.41
2022-10-25T23:19:13.996Z,100750.47
2022-10-25T23:21:41.838Z,100753.53
2022-10-25T23:24:09.643Z,100758.50
2022-10-25T23:26:37.550Z,100751.16
2022-10-25T23:29:05.900Z,100757.28
2022-10-25T23:31:33.843Z,100749.56
2022-10-25T23:34:01.927Z,100747.88
2022-10-25T23:36:37.778Z,100745.16
2022-10-25T23:39:07.661Z,100759.44
2022-10-25T23:41:35.742Z,100762.50
2022-10-25T23:44:03.551Z,100756.69
2022-10-25T23:46:31.407Z,100756.25
2022-10-25T23:48:59.013Z,100759.38
2022-10-25T23:51:27.014Z,100763.19
2022-10-25T23:53:54.859Z,100766.72
2022-10-25T23:56:22.804Z,100760.06
2022-10-25T23:58:53.738Z,100765.84
